sensor_id;sensor_type;location;lat;lon;timestamp;P1;durP1;ratioP1;P2;durP2;ratioP2
20423;SDS011;10371;49.042;8.002;2024-03-08T00:00:25;20.17;;;17.23;;
20423;SDS011;10371;49.042;8.002;2024-03-08T00:01:25;20.37;;;17.83;;
20423;SDS011;10371;49.042;8.002;2024-03-08T00:02:26;19.10;;;17.20;;
20423;SDS011;10371;49.042;8.002;2024-03-08T00:03:26;19.20;;;16.27;;
20423;SDS011;10371;49.042;8.002;2024-03-08T00:04:26;18.37;;;16.47;;
20423;SDS011;10371;49.042;8.002;2024-03-08T00:05:27;19.07;;;17.07;;
20423;SDS011;10371;49.042;8.002;2024-03-08T00:06:27;19.27;;;17.20;;
20423;SDS011;10371;49.042;8.002;2024-03-08T00:07:27;20.73;;;17.07;;
20423;SDS011;10371;49.042;8.002;2024-03-08T00:08:28;19.57;;;17.50;;
20423;SDS011;10371;49.042;8.002;2024-03-08T00:09:28;19.80;;;17.57;;
20423;SDS011;10371;49.042;8.002;2024-03-08T00:10:30;18.90;;;16.97;;
20423;SDS011;10371;49.042;8.002;2024-03-08T00:11:30;20.23;;;17.83;;
20423;SDS011;10371;49.042;8.002;2024-03-08T00:12:31;18.07;;;16.27;;
20423;SDS011;10371;49.042;8.002;2024-03-08T00:13:31;18.83;;;16.83;;
20423;SDS011;10371;49.042;8.002;2024-03-08T00:14:32;19.60;;;16.97;;
20423;SDS011;10371;49.042;8.002;2024-03-08T00:15:33;20.50;;;18.30;;
20423;SDS011;10371;49.042;8.002;2024-03-08T00:16:33;19.93;;;17.93;;
20423;SDS011;10371;49.042;8.002;2024-03-08T00:17:35;20.37;;;17.40;;
20423;SDS011;10371;49.042;8.002;2024-03-08T00:18:36;19.23;;;17.13;;
20423;SDS011;10371;49.042;8.002;2024-03-08T00:19:36;19.67;;;17.50;;
20423;SDS011;10371;49.042;8.002;2024-03-08T00:20:37;19.80;;;16.97;;
20423;SDS011;10371;49.042;8.002;2024-03-08T00:21:37;18.93;;;16.90;;
20423;SDS011;10371;49.042;8.002;2024-03-08T00:22:38;19.97;;;17.87;;
20423;SDS011;10371;49.042;8.002;2024-03-08T00:23:38;19.67;;;16.77;;
20423;SDS011;10371;49.042;8.002;2024-03-08T00:24:39;20.73;;;18.37;;
20423;SDS011;10371;49.042;8.002;2024-03-08T00:25:40;20.53;;;18.20;;
20423;SDS011;10371;49.042;8.002;2024-03-08T00:26:40;19.20;;;17.10;;
20423;SDS011;10371;49.042;8.002;2024-03-08T00:27:42;19.60;;;17.23;;
20423;SDS011;10371;49.042;8.002;2024-03-08T00:28:42;17.87;;;16.10;;
20423;SDS011;10371;49.042;8.002;2024-03-08T00:29:43;18.43;;;16.53;;
20423;SDS011;10371;49.042;8.002;2024-03-08T00:30:43;20.80;;;18.17;;
20423;SDS011;10371;49.042;8.002;2024-03-08T00:31:43;21.63;;;18.87;;
20423;SDS011;10371;49.042;8.002;2024-03-08T00:32:44;20.07;;;17.70;;
20423;SDS011;10371;49.042;8.002;2024-03-08T00:33:44;20.00;;;17.57;;
20423;SDS011;10371;49.042;8.002;2024-03-08T00:34:44;21.77;;;18.17;;
20423;SDS011;10371;49.042;8.002;2024-03-08T00:35:45;19.30;;;17.30;;
20423;SDS011;10371;49.042;8.002;2024-03-08T00:36:45;19.40;;;17.40;;
20423;SDS011;10371;49.042;8.002;2024-03-08T00:37:45;22.20;;;18.63;;
20423;SDS011;10371;49.042;8.002;2024-03-08T00:38:46;20.10;;;17.80;;
20423;SDS011;10371;49.042;8.002;2024-03-08T00:39:47;20.90;;;18.27;;
20423;SDS011;10371;49.042;8.002;2024-03-08T00:40:51;20.43;;;17.90;;
20423;SDS011;10371;49.042;8.002;2024-03-08T00:41:51;19.03;;;17.03;;
20423;SDS011;10371;49.042;8.002;2024-03-08T00:42:52;20.27;;;17.17;;
20423;SDS011;10371;49.042;8.002;2024-03-08T00:43:53;19.10;;;16.70;;
20423;SDS011;10371;49.042;8.002;2024-03-08T00:44:53;19.43;;;17.33;;
20423;SDS011;10371;49.042;8.002;2024-03-08T00:45:54;19.80;;;17.70;;
20423;SDS011;10371;49.042;8.002;2024-03-08T00:46:54;19.40;;;17.17;;
20423;SDS011;10371;49.042;8.002;2024-03-08T00:47:54;20.83;;;18.63;;
20423;SDS011;10371;49.042;8.002;2024-03-08T00:48:55;20.03;;;17.57;;
20423;SDS011;10371;49.042;8.002;2024-03-08T00:49:56;20.20;;;18.00;;
20423;SDS011;10371;49.042;8.002;2024-03-08T00:50:56;19.40;;;17.23;;
20423;SDS011;10371;49.042;8.002;2024-03-08T00:51:57;20.80;;;18.40;;
20423;SDS011;10371;49.042;8.002;2024-03-08T00:52:57;19.90;;;17.80;;
20423;SDS011;10371;49.042;8.002;2024-03-08T00:53:58;20.03;;;17.93;;
20423;SDS011;10371;49.042;8.002;2024-03-08T00:54:58;20.47;;;18.33;;
20423;SDS011;10371;49.042;8.002;2024-03-08T00:55:58;20.33;;;17.67;;
20423;SDS011;10371;49.042;8.002;2024-03-08T00:56:58;19.50;;;17.50;;
20423;SDS011;10371;49.042;8.002;2024-03-08T00:58:00;21.37;;;19.10;;
20423;SDS011;10371;49.042;8.002;2024-03-08T00:59:01;20.20;;;18.10;;
20423;SDS011;10371;49.042;8.002;2024-03-08T01:00:03;19.33;;;17.23;;
20423;SDS011;10371;49.042;8.002;2024-03-08T01:01:09;20.97;;;17.90;;
20423;SDS011;10371;49.042;8.002;2024-03-08T01:02:09;20.43;;;18.33;;
20423;SDS011;10371;49.042;8.002;2024-03-08T01:03:10;20.23;;;18.03;;
20423;SDS011;10371;49.042;8.002;2024-03-08T01:04:10;19.83;;;17.73;;
20423;SDS011;10371;49.042;8.002;2024-03-08T01:05:11;21.10;;;18.90;;
20423;SDS011;10371;49.042;8.002;2024-03-08T01:06:11;22.30;;;18.70;;
20423;SDS011;10371;49.042;8.002;2024-03-08T01:07:12;21.27;;;18.97;;
20423;SDS011;10371;49.042;8.002;2024-03-08T01:08:12;21.97;;;17.63;;
20423;SDS011;10371;49.042;8.002;2024-03-08T01:09:13;19.60;;;17.27;;
20423;SDS011;10371;49.042;8.002;2024-03-08T01:10:13;20.47;;;18.30;;
20423;SDS011;10371;49.042;8.002;2024-03-08T01:11:13;20.20;;;17.60;;
20423;SDS011;10371;49.042;8.002;2024-03-08T01:12:14;20.50;;;18.03;;
20423;SDS011;10371;49.042;8.002;2024-03-08T01:13:14;20.67;;;18.47;;
20423;SDS011;10371;49.042;8.002;2024-03-08T01:14:15;21.03;;;18.77;;
20423;SDS011;10371;49.042;8.002;2024-03-08T01:15:15;21.27;;;18.80;;
20423;SDS011;10371;49.042;8.002;2024-03-08T01:16:16;21.40;;;18.97;;
20423;SDS011;10371;49.042;8.002;2024-03-08T01:17:21;21.07;;;18.57;;
20423;SDS011;10371;49.042;8.002;2024-03-08T01:18:21;21.03;;;18.23;;
20423;SDS011;10371;49.042;8.002;2024-03-08T01:19:22;20.23;;;18.13;;
20423;SDS011;10371;49.042;8.002;2024-03-08T01:20:22;20.27;;;18.03;;
20423;SDS011;10371;49.042;8.002;2024-03-08T01:21:23;21.40;;;17.57;;
20423;SDS011;10371;49.042;8.002;2024-03-08T01:22:23;20.80;;;18.60;;
20423;SDS011;10371;49.042;8.002;2024-03-08T01:23:23;19.87;;;17.77;;
20423;SDS011;10371;49.042;8.002;2024-03-08T01:24:24;20.10;;;17.90;;
20423;SDS011;10371;49.042;8.002;2024-03-08T01:25:25;20.43;;;17.83;;
20423;SDS011;10371;49.042;8.002;2024-03-08T01:26:25;20.77;;;18.53;;
20423;SDS011;10371;49.042;8.002;2024-03-08T01:27:26;21.23;;;18.13;;
20423;SDS011;10371;49.042;8.002;2024-03-08T01:28:26;20.80;;;18.23;;
20423;SDS011;10371;49.042;8.002;2024-03-08T01:29:26;19.37;;;17.27;;
20423;SDS011;10371;49.042;8.002;2024-03-08T01:30:27;21.80;;;19.17;;
20423;SDS011;10371;49.042;8.002;2024-03-08T01:31:28;19.93;;;17.50;;
20423;SDS011;10371;49.042;8.002;2024-03-08T01:32:29;20.57;;;17.80;;
20423;SDS011;10371;49.042;8.002;2024-03-08T01:33:30;21.13;;;18.43;;
20423;SDS011;10371;49.042;8.002;2024-03-08T01:34:31;19.47;;;17.40;;
20423;SDS011;10371;49.042;8.002;2024-03-08T01:35:33;21.80;;;18.47;;
20423;SDS011;10371;49.042;8.002;2024-03-08T01:36:34;19.93;;;17.30;;
20423;SDS011;10371;49.042;8.002;2024-03-08T01:37:37;20.47;;;18.20;;
20423;SDS011;10371;49.042;8.002;2024-03-08T01:38:38;20.93;;;18.27;;
20423;SDS011;10371;49.042;8.002;2024-03-08T01:39:38;21.10;;;17.90;;
20423;SDS011;10371;49.042;8.002;2024-03-08T01:40:38;21.33;;;18.23;;
20423;SDS011;10371;49.042;8.002;2024-03-08T01:41:41;22.23;;;18.73;;
20423;SDS011;10371;49.042;8.002;2024-03-08T01:42:41;20.77;;;18.00;;
20423;SDS011;10371;49.042;8.002;2024-03-08T01:43:41;21.53;;;18.27;;
20423;SDS011;10371;49.042;8.002;2024-03-08T01:44:42;20.63;;;17.93;;
20423;SDS011;10371;49.042;8.002;2024-03-08T01:45:43;21.13;;;18.77;;
20423;SDS011;10371;49.042;8.002;2024-03-08T01:46:44;21.00;;;18.63;;
20423;SDS011;10371;49.042;8.002;2024-03-08T01:47:45;22.13;;;18.63;;
20423;SDS011;10371;49.042;8.002;2024-03-08T01:48:48;21.57;;;18.67;;
20423;SDS011;10371;49.042;8.002;2024-03-08T01:49:50;21.73;;;18.47;;
20423;SDS011;10371;49.042;8.002;2024-03-08T01:50:51;21.93;;;18.87;;
20423;SDS011;10371;49.042;8.002;2024-03-08T01:51:52;21.03;;;18.20;;
20423;SDS011;10371;49.042;8.002;2024-03-08T01:52:52;21.33;;;19.03;;
20423;SDS011;10371;49.042;8.002;2024-03-08T01:53:53;20.43;;;18.00;;
20423;SDS011;10371;49.042;8.002;2024-03-08T01:54:53;21.17;;;17.87;;
20423;SDS011;10371;49.042;8.002;2024-03-08T01:55:55;20.50;;;18.30;;
20423;SDS011;10371;49.042;8.002;2024-03-08T01:56:57;19.77;;;17.67;;
20423;SDS011;10371;49.042;8.002;2024-03-08T01:57:58;21.40;;;19.03;;
20423;SDS011;10371;49.042;8.002;2024-03-08T01:58:59;21.30;;;19.00;;
20423;SDS011;10371;49.042;8.002;2024-03-08T02:00:01;20.17;;;17.97;;
20423;SDS011;10371;49.042;8.002;2024-03-08T02:01:03;22.10;;;18.93;;
20423;SDS011;10371;49.042;8.002;2024-03-08T02:02:04;21.70;;;19.00;;
20423;SDS011;10371;49.042;8.002;2024-03-08T02:03:06;21.70;;;18.93;;
20423;SDS011;10371;49.042;8.002;2024-03-08T02:04:06;20.73;;;18.50;;
20423;SDS011;10371;49.042;8.002;2024-03-08T02:05:07;21.47;;;18.60;;
20423;SDS011;10371;49.042;8.002;2024-03-08T02:06:08;21.43;;;19.13;;
20423;SDS011;10371;49.042;8.002;2024-03-08T02:07:10;22.07;;;19.23;;
20423;SDS011;10371;49.042;8.002;2024-03-08T02:08:10;21.73;;;18.83;;
20423;SDS011;10371;49.042;8.002;2024-03-08T02:09:14;21.93;;;19.27;;
20423;SDS011;10371;49.042;8.002;2024-03-08T02:10:14;21.63;;;18.77;;
20423;SDS011;10371;49.042;8.002;2024-03-08T02:11:15;21.60;;;19.30;;
20423;SDS011;10371;49.042;8.002;2024-03-08T02:12:15;23.00;;;19.50;;
20423;SDS011;10371;49.042;8.002;2024-03-08T02:13:16;21.63;;;19.30;;
20423;SDS011;10371;49.042;8.002;2024-03-08T02:14:17;22.07;;;19.43;;
20423;SDS011;10371;49.042;8.002;2024-03-08T02:15:18;23.67;;;20.33;;
20423;SDS011;10371;49.042;8.002;2024-03-08T02:16:20;22.10;;;19.70;;
20423;SDS011;10371;49.042;8.002;2024-03-08T02:17:21;23.47;;;19.53;;
20423;SDS011;10371;49.042;8.002;2024-03-08T02:18:22;21.23;;;18.93;;
20423;SDS011;10371;49.042;8.002;2024-03-08T02:19:23;22.13;;;19.27;;
20423;SDS011;10371;49.042;8.002;2024-03-08T02:20:23;22.23;;;19.83;;
20423;SDS011;10371;49.042;8.002;2024-03-08T02:21:23;22.13;;;19.73;;
20423;SDS011;10371;49.042;8.002;2024-03-08T02:22:24;22.03;;;19.60;;
20423;SDS011;10371;49.042;8.002;2024-03-08T02:23:25;23.03;;;18.47;;
20423;SDS011;10371;49.042;8.002;2024-03-08T02:24:26;25.03;;;19.90;;
20423;SDS011;10371;49.042;8.002;2024-03-08T02:25:26;23.30;;;20.20;;
20423;SDS011;10371;49.042;8.002;2024-03-08T02:26:27;21.50;;;19.20;;
20423;SDS011;10371;49.042;8.002;2024-03-08T02:27:27;25.20;;;20.30;;
20423;SDS011;10371;49.042;8.002;2024-03-08T02:28:29;22.20;;;19.77;;
20423;SDS011;10371;49.042;8.002;2024-03-08T02:29:30;23.17;;;19.73;;
20423;SDS011;10371;49.042;8.002;2024-03-08T02:30:32;21.83;;;19.53;;
20423;SDS011;10371;49.042;8.002;2024-03-08T02:31:32;21.83;;;19.10;;
20423;SDS011;10371;49.042;8.002;2024-03-08T02:32:33;23.43;;;19.70;;
20423;SDS011;10371;49.042;8.002;2024-03-08T02:33:33;21.47;;;18.93;;
20423;SDS011;10371;49.042;8.002;2024-03-08T02:34:33;22.57;;;19.63;;
20423;SDS011;10371;49.042;8.002;2024-03-08T02:35:34;21.87;;;19.50;;
20423;SDS011;10371;49.042;8.002;2024-03-08T02:36:35;22.47;;;20.17;;
20423;SDS011;10371;49.042;8.002;2024-03-08T02:37:35;22.40;;;19.00;;
20423;SDS011;10371;49.042;8.002;2024-03-08T02:38:36;25.63;;;21.00;;
20423;SDS011;10371;49.042;8.002;2024-03-08T02:39:36;21.20;;;18.60;;
20423;SDS011;10371;49.042;8.002;2024-03-08T02:40:36;22.60;;;20.10;;
20423;SDS011;10371;49.042;8.002;2024-03-08T02:41:36;21.90;;;19.60;;
20423;SDS011;10371;49.042;8.002;2024-03-08T02:42:37;24.17;;;19.23;;
20423;SDS011;10371;49.042;8.002;2024-03-08T02:43:37;22.27;;;19.67;;
20423;SDS011;10371;49.042;8.002;2024-03-08T02:44:38;22.67;;;19.40;;
20423;SDS011;10371;49.042;8.002;2024-03-08T02:45:42;21.50;;;19.20;;
20423;SDS011;10371;49.042;8.002;2024-03-08T02:46:42;22.43;;;20.03;;
20423;SDS011;10371;49.042;8.002;2024-03-08T02:47:42;22.23;;;19.77;;
20423;SDS011;10371;49.042;8.002;2024-03-08T02:48:42;24.30;;;19.17;;
20423;SDS011;10371;49.042;8.002;2024-03-08T02:49:43;22.93;;;19.63;;
20423;SDS011;10371;49.042;8.002;2024-03-08T02:50:43;23.30;;;19.87;;
20423;SDS011;10371;49.042;8.002;2024-03-08T02:51:44;24.77;;;20.23;;
20423;SDS011;10371;49.042;8.002;2024-03-08T02:52:44;22.63;;;20.10;;
20423;SDS011;10371;49.042;8.002;2024-03-08T02:53:46;22.37;;;19.80;;
20423;SDS011;10371;49.042;8.002;2024-03-08T02:54:48;22.60;;;19.43;;
20423;SDS011;10371;49.042;8.002;2024-03-08T02:55:49;22.23;;;19.17;;
20423;SDS011;10371;49.042;8.002;2024-03-08T02:56:50;23.53;;;19.97;;
20423;SDS011;10371;49.042;8.002;2024-03-08T02:57:51;22.43;;;19.67;;
20423;SDS011;10371;49.042;8.002;2024-03-08T02:58:52;22.40;;;19.50;;
20423;SDS011;10371;49.042;8.002;2024-03-08T02:59:53;22.23;;;19.77;;
20423;SDS011;10371;49.042;8.002;2024-03-08T03:00:53;22.10;;;19.80;;
20423;SDS011;10371;49.042;8.002;2024-03-08T03:01:55;22.70;;;20.27;;
20423;SDS011;10371;49.042;8.002;2024-03-08T03:02:55;21.70;;;19.03;;
20423;SDS011;10371;49.042;8.002;2024-03-08T03:03:56;22.80;;;20.37;;
20423;SDS011;10371;49.042;8.002;2024-03-08T03:04:58;22.10;;;19.70;;
20423;SDS011;10371;49.042;8.002;2024-03-08T03:05:58;23.13;;;20.47;;
20423;SDS011;10371;49.042;8.002;2024-03-08T03:06:58;21.77;;;19.47;;
20423;SDS011;10371;49.042;8.002;2024-03-08T03:07:59;24.33;;;20.10;;
20423;SDS011;10371;49.042;8.002;2024-03-08T03:08:59;24.77;;;19.93;;
20423;SDS011;10371;49.042;8.002;2024-03-08T03:10:00;23.97;;;20.90;;
20423;SDS011;10371;49.042;8.002;2024-03-08T03:11:00;23.10;;;20.23;;
20423;SDS011;10371;49.042;8.002;2024-03-08T03:12:01;23.07;;;20.03;;
20423;SDS011;10371;49.042;8.002;2024-03-08T03:13:02;23.67;;;20.93;;
20423;SDS011;10371;49.042;8.002;2024-03-08T03:14:04;25.13;;;20.67;;
20423;SDS011;10371;49.042;8.002;2024-03-08T03:15:04;23.43;;;19.87;;
20423;SDS011;10371;49.042;8.002;2024-03-08T03:16:06;23.27;;;20.30;;
20423;SDS011;10371;49.042;8.002;2024-03-08T03:17:07;22.27;;;19.87;;
20423;SDS011;10371;49.042;8.002;2024-03-08T03:18:07;23.87;;;20.60;;
20423;SDS011;10371;49.042;8.002;2024-03-08T03:19:07;25.33;;;20.60;;
20423;SDS011;10371;49.042;8.002;2024-03-08T03:20:08;24.97;;;19.83;;
20423;SDS011;10371;49.042;8.002;2024-03-08T03:21:13;24.13;;;20.60;;
20423;SDS011;10371;49.042;8.002;2024-03-08T03:22:13;24.07;;;20.63;;
20423;SDS011;10371;49.042;8.002;2024-03-08T03:23:15;24.23;;;21.20;;
20423;SDS011;10371;49.042;8.002;2024-03-08T03:24:20;23.53;;;20.27;;
20423;SDS011;10371;49.042;8.002;2024-03-08T03:25:21;25.67;;;20.80;;
20423;SDS011;10371;49.042;8.002;2024-03-08T03:26:33;22.73;;;20.33;;
20423;SDS011;10371;49.042;8.002;2024-03-08T03:27:33;23.80;;;20.57;;
20423;SDS011;10371;49.042;8.002;2024-03-08T03:28:34;23.40;;;20.57;;
20423;SDS011;10371;49.042;8.002;2024-03-08T03:29:34;25.80;;;21.40;;
20423;SDS011;10371;49.042;8.002;2024-03-08T03:30:34;24.43;;;20.67;;
20423;SDS011;10371;49.042;8.002;2024-03-08T03:31:35;26.63;;;21.63;;
20423;SDS011;10371;49.042;8.002;2024-03-08T03:32:36;24.07;;;20.73;;
20423;SDS011;10371;49.042;8.002;2024-03-08T03:33:46;24.23;;;20.47;;
20423;SDS011;10371;49.042;8.002;2024-03-08T03:34:47;25.40;;;21.53;;
20423;SDS011;10371;49.042;8.002;2024-03-08T03:35:47;23.43;;;20.60;;
20423;SDS011;10371;49.042;8.002;2024-03-08T03:36:47;24.13;;;20.90;;
20423;SDS011;10371;49.042;8.002;2024-03-08T03:37:48;25.27;;;21.47;;
20423;SDS011;10371;49.042;8.002;2024-03-08T03:39:02;25.70;;;21.23;;
20423;SDS011;10371;49.042;8.002;2024-03-08T03:40:11;24.97;;;20.57;;
20423;SDS011;10371;49.042;8.002;2024-03-08T03:41:13;22.97;;;20.43;;
20423;SDS011;10371;49.042;8.002;2024-03-08T03:42:17;26.13;;;20.70;;
20423;SDS011;10371;49.042;8.002;2024-03-08T03:43:18;23.13;;;20.27;;
20423;SDS011;10371;49.042;8.002;2024-03-08T03:44:19;26.23;;;21.63;;
20423;SDS011;10371;49.042;8.002;2024-03-08T03:45:19;25.27;;;22.57;;
20423;SDS011;10371;49.042;8.002;2024-03-08T03:46:20;23.63;;;20.67;;
20423;SDS011;10371;49.042;8.002;2024-03-08T03:47:20;25.33;;;22.07;;
20423;SDS011;10371;49.042;8.002;2024-03-08T03:48:21;27.40;;;22.47;;
20423;SDS011;10371;49.042;8.002;2024-03-08T03:49:21;23.97;;;20.90;;
20423;SDS011;10371;49.042;8.002;2024-03-08T03:50:21;24.00;;;20.93;;
20423;SDS011;10371;49.042;8.002;2024-03-08T03:51:23;25.33;;;21.37;;
20423;SDS011;10371;49.042;8.002;2024-03-08T03:52:24;24.67;;;21.77;;
20423;SDS011;10371;49.042;8.002;2024-03-08T03:53:24;25.93;;;21.30;;
20423;SDS011;10371;49.042;8.002;2024-03-08T03:54:25;27.73;;;22.63;;
20423;SDS011;10371;49.042;8.002;2024-03-08T03:55:26;25.93;;;22.63;;
20423;SDS011;10371;49.042;8.002;2024-03-08T03:56:27;26.37;;;22.70;;
20423;SDS011;10371;49.042;8.002;2024-03-08T03:57:27;27.17;;;22.20;;
20423;SDS011;10371;49.042;8.002;2024-03-08T03:58:28;25.10;;;22.20;;
20423;SDS011;10371;49.042;8.002;2024-03-08T03:59:28;24.70;;;21.67;;
20423;SDS011;10371;49.042;8.002;2024-03-08T04:00:29;24.17;;;21.40;;
20423;SDS011;10371;49.042;8.002;2024-03-08T04:01:29;25.67;;;21.57;;
20423;SDS011;10371;49.042;8.002;2024-03-08T04:02:29;26.37;;;22.63;;
20423;SDS011;10371;49.042;8.002;2024-03-08T04:03:30;26.60;;;22.73;;
20423;SDS011;10371;49.042;8.002;2024-03-08T04:04:30;26.80;;;22.13;;
20423;SDS011;10371;49.042;8.002;2024-03-08T04:05:30;25.67;;;20.77;;
20423;SDS011;10371;49.042;8.002;2024-03-08T04:06:31;26.30;;;21.23;;
20423;SDS011;10371;49.042;8.002;2024-03-08T04:07:32;24.13;;;21.53;;
20423;SDS011;10371;49.042;8.002;2024-03-08T04:08:32;26.17;;;21.70;;
20423;SDS011;10371;49.042;8.002;2024-03-08T04:09:35;24.37;;;21.77;;
20423;SDS011;10371;49.042;8.002;2024-03-08T04:10:35;24.77;;;21.43;;
20423;SDS011;10371;49.042;8.002;2024-03-08T04:11:36;27.30;;;22.47;;
20423;SDS011;10371;49.042;8.002;2024-03-08T04:12:36;24.93;;;22.23;;
20423;SDS011;10371;49.042;8.002;2024-03-08T04:13:37;25.07;;;22.20;;
20423;SDS011;10371;49.042;8.002;2024-03-08T04:14:39;28.73;;;22.57;;
20423;SDS011;10371;49.042;8.002;2024-03-08T04:15:41;26.33;;;22.50;;
20423;SDS011;10371;49.042;8.002;2024-03-08T04:16:44;26.03;;;22.63;;
20423;SDS011;10371;49.042;8.002;2024-03-08T04:17:44;27.73;;;22.30;;
20423;SDS011;10371;49.042;8.002;2024-03-08T04:18:45;24.73;;;22.00;;
20423;SDS011;10371;49.042;8.002;2024-03-08T04:19:46;26.40;;;22.13;;
20423;SDS011;10371;49.042;8.002;2024-03-08T04:20:48;26.47;;;22.17;;
20423;SDS011;10371;49.042;8.002;2024-03-08T04:21:48;25.47;;;22.17;;
20423;SDS011;10371;49.042;8.002;2024-03-08T04:22:48;24.67;;;21.73;;
20423;SDS011;10371;49.042;8.002;2024-03-08T04:23:49;25.30;;;21.47;;
20423;SDS011;10371;49.042;8.002;2024-03-08T04:24:49;25.20;;;22.47;;
20423;SDS011;10371;49.042;8.002;2024-03-08T04:25:49;26.20;;;22.33;;
20423;SDS011;10371;49.042;8.002;2024-03-08T04:26:50;26.77;;;22.23;;
20423;SDS011;10371;49.042;8.002;2024-03-08T04:27:50;25.37;;;22.67;;
20423;SDS011;10371;49.042;8.002;2024-03-08T04:28:52;25.37;;;21.23;;
20423;SDS011;10371;49.042;8.002;2024-03-08T04:29:53;25.87;;;22.13;;
20423;SDS011;10371;49.042;8.002;2024-03-08T04:30:53;25.83;;;23.00;;
20423;SDS011;10371;49.042;8.002;2024-03-08T04:31:54;27.53;;;22.00;;
20423;SDS011;10371;49.042;8.002;2024-03-08T04:32:54;25.53;;;22.63;;
20423;SDS011;10371;49.042;8.002;2024-03-08T04:33:55;25.63;;;22.30;;
20423;SDS011;10371;49.042;8.002;2024-03-08T04:34:55;25.83;;;21.50;;
20423;SDS011;10371;49.042;8.002;2024-03-08T04:35:56;25.60;;;21.80;;
20423;SDS011;10371;49.042;8.002;2024-03-08T04:36:57;24.73;;;21.40;;
20423;SDS011;10371;49.042;8.002;2024-03-08T04:37:58;26.27;;;22.30;;
20423;SDS011;10371;49.042;8.002;2024-03-08T04:38:59;26.23;;;20.97;;
20423;SDS011;10371;49.042;8.002;2024-03-08T04:40:00;25.27;;;21.70;;
20423;SDS011;10371;49.042;8.002;2024-03-08T04:41:00;24.37;;;20.73;;
20423;SDS011;10371;49.042;8.002;2024-03-08T04:42:02;24.40;;;21.63;;
20423;SDS011;10371;49.042;8.002;2024-03-08T04:43:10;24.10;;;21.50;;
20423;SDS011;10371;49.042;8.002;2024-03-08T04:44:10;25.77;;;21.43;;
20423;SDS011;10371;49.042;8.002;2024-03-08T04:45:12;26.43;;;21.87;;
20423;SDS011;10371;49.042;8.002;2024-03-08T04:46:13;26.33;;;22.07;;
20423;SDS011;10371;49.042;8.002;2024-03-08T04:47:14;24.00;;;20.83;;
20423;SDS011;10371;49.042;8.002;2024-03-08T04:48:14;23.87;;;21.30;;
20423;SDS011;10371;49.042;8.002;2024-03-08T04:49:15;24.27;;;21.67;;
20423;SDS011;10371;49.042;8.002;2024-03-08T04:50:15;25.93;;;21.60;;
20423;SDS011;10371;49.042;8.002;2024-03-08T04:51:16;23.87;;;21.20;;
20423;SDS011;10371;49.042;8.002;2024-03-08T04:52:16;25.27;;;22.03;;
20423;SDS011;10371;49.042;8.002;2024-03-08T04:53:16;23.93;;;20.73;;
20423;SDS011;10371;49.042;8.002;2024-03-08T04:54:17;24.77;;;20.90;;
20423;SDS011;10371;49.042;8.002;2024-03-08T04:55:18;25.33;;;20.27;;
20423;SDS011;10371;49.042;8.002;2024-03-08T04:56:21;25.60;;;21.70;;
20423;SDS011;10371;49.042;8.002;2024-03-08T04:57:21;25.93;;;21.17;;
20423;SDS011;10371;49.042;8.002;2024-03-08T04:58:21;27.07;;;21.97;;
20423;SDS011;10371;49.042;8.002;2024-03-08T04:59:21;23.60;;;19.77;;
20423;SDS011;10371;49.042;8.002;2024-03-08T05:00:22;24.37;;;21.50;;
20423;SDS011;10371;49.042;8.002;2024-03-08T05:01:22;24.23;;;21.27;;
20423;SDS011;10371;49.042;8.002;2024-03-08T05:02:22;26.00;;;21.73;;
20423;SDS011;10371;49.042;8.002;2024-03-08T05:03:23;25.70;;;20.57;;
20423;SDS011;10371;49.042;8.002;2024-03-08T05:04:26;23.87;;;21.30;;
20423;SDS011;10371;49.042;8.002;2024-03-08T05:05:26;25.60;;;21.50;;
20423;SDS011;10371;49.042;8.002;2024-03-08T05:06:28;24.70;;;21.70;;
20423;SDS011;10371;49.042;8.002;2024-03-08T05:07:30;27.00;;;20.53;;
20423;SDS011;10371;49.042;8.002;2024-03-08T05:08:30;24.57;;;20.97;;
20423;SDS011;10371;49.042;8.002;2024-03-08T05:09:30;25.37;;;21.77;;
20423;SDS011;10371;49.042;8.002;2024-03-08T05:10:31;23.83;;;21.17;;
20423;SDS011;10371;49.042;8.002;2024-03-08T05:11:32;22.87;;;20.43;;
20423;SDS011;10371;49.042;8.002;2024-03-08T05:12:33;23.73;;;21.23;;
20423;SDS011;10371;49.042;8.002;2024-03-08T05:13:34;24.30;;;21.50;;
20423;SDS011;10371;49.042;8.002;2024-03-08T05:14:34;23.50;;;20.83;;
20423;SDS011;10371;49.042;8.002;2024-03-08T05:15:35;25.90;;;21.50;;
20423;SDS011;10371;49.042;8.002;2024-03-08T05:16:36;25.40;;;21.43;;
20423;SDS011;10371;49.042;8.002;2024-03-08T05:17:36;27.27;;;21.77;;
20423;SDS011;10371;49.042;8.002;2024-03-08T05:18:37;25.17;;;21.77;;
20423;SDS011;10371;49.042;8.002;2024-03-08T05:19:37;27.50;;;22.20;;
20423;SDS011;10371;49.042;8.002;2024-03-08T05:20:38;25.27;;;21.17;;
20423;SDS011;10371;49.042;8.002;2024-03-08T05:21:39;28.33;;;21.53;;
20423;SDS011;10371;49.042;8.002;2024-03-08T05:22:39;27.00;;;21.03;;
20423;SDS011;10371;49.042;8.002;2024-03-08T05:23:42;24.70;;;20.37;;
20423;SDS011;10371;49.042;8.002;2024-03-08T05:24:43;23.40;;;20.90;;
20423;SDS011;10371;49.042;8.002;2024-03-08T05:25:43;25.30;;;21.30;;
20423;SDS011;10371;49.042;8.002;2024-03-08T05:26:43;23.23;;;19.73;;
20423;SDS011;10371;49.042;8.002;2024-03-08T05:27:44;26.20;;;21.33;;
20423;SDS011;10371;49.042;8.002;2024-03-08T05:28:45;23.77;;;20.53;;
20423;SDS011;10371;49.042;8.002;2024-03-08T05:29:45;23.80;;;21.20;;
20423;SDS011;10371;49.042;8.002;2024-03-08T05:30:46;24.43;;;20.53;;
20423;SDS011;10371;49.042;8.002;2024-03-08T05:31:49;24.17;;;20.77;;
20423;SDS011;10371;49.042;8.002;2024-03-08T05:32:52;25.37;;;21.07;;
20423;SDS011;10371;49.042;8.002;2024-03-08T05:33:52;26.47;;;21.63;;
20423;SDS011;10371;49.042;8.002;2024-03-08T05:34:54;23.60;;;20.00;;
20423;SDS011;10371;49.042;8.002;2024-03-08T05:35:54;24.50;;;21.03;;
20423;SDS011;10371;49.042;8.002;2024-03-08T05:36:54;25.60;;;20.67;;
20423;SDS011;10371;49.042;8.002;2024-03-08T05:37:55;24.83;;;21.23;;
20423;SDS011;10371;49.042;8.002;2024-03-08T05:38:55;25.77;;;21.57;;
20423;SDS011;10371;49.042;8.002;2024-03-08T05:39:55;25.90;;;21.00;;
20423;SDS011;10371;49.042;8.002;2024-03-08T05:40:55;26.17;;;22.10;;
20423;SDS011;10371;49.042;8.002;2024-03-08T05:41:56;26.20;;;21.23;;
20423;SDS011;10371;49.042;8.002;2024-03-08T05:42:56;25.40;;;20.70;;
20423;SDS011;10371;49.042;8.002;2024-03-08T05:43:57;22.80;;;20.27;;
20423;SDS011;10371;49.042;8.002;2024-03-08T05:44:57;25.37;;;21.37;;
20423;SDS011;10371;49.042;8.002;2024-03-08T05:45:58;24.63;;;21.37;;
20423;SDS011;10371;49.042;8.002;2024-03-08T05:46:59;24.53;;;21.93;;
20423;SDS011;10371;49.042;8.002;2024-03-08T05:47:59;22.73;;;20.03;;
20423;SDS011;10371;49.042;8.002;2024-03-08T05:48:59;23.93;;;20.53;;
20423;SDS011;10371;49.042;8.002;2024-03-08T05:50:00;23.47;;;20.23;;
20423;SDS011;10371;49.042;8.002;2024-03-08T05:51:00;25.40;;;20.63;;
20423;SDS011;10371;49.042;8.002;2024-03-08T05:52:01;25.93;;;21.23;;
20423;SDS011;10371;49.042;8.002;2024-03-08T05:53:02;24.23;;;19.53;;
20423;SDS011;10371;49.042;8.002;2024-03-08T05:54:03;25.67;;;21.10;;
20423;SDS011;10371;49.042;8.002;2024-03-08T05:55:05;22.93;;;20.33;;
20423;SDS011;10371;49.042;8.002;2024-03-08T05:56:07;22.97;;;20.10;;